Time;durP1;ratioP1;P1;durP2;ratioP2;P2;SDS_P1;SDS_P2;PMS_P1;PMS_P2;Temp;Humidity;BMP_temperature;BMP_pressure;BME280_temperature;BME280_humidity;BME280_pressure;Samples;Min_cycle;Max_cycle;Signal;HPM_P1;HPM_P2
2021/08/31 00:00:13;;;;;;;10.00;9.00;;;16.40;99.90;;;;;;2080619;28;20036;-68
2021/08/31 00:01:13;;;;;;;10.60;8.75;;;16.40;99.90;;;;;;2079994;28;20069;-68
2021/08/31 00:02:14;;;;;;;9.95;8.95;;;16.40;99.90;;;;;;2080182;28;20099;-68
2021/08/31 00:03:14;;;;;;;11.15;8.98;;;16.40;99.90;;;;;;2079806;28;20036;-68
2021/08/31 00:04:15;;;;;;;10.88;9.23;;;16.40;99.90;;;;;;2080032;28;20021;-68
2021/08/31 00:05:16;;;;;;;9.60;8.70;;;16.40;99.90;;;;;;2080229;28;20021;-68
2021/08/31 00:06:16;;;;;;;10.75;9.73;;;16.40;99.90;;;;;;2080001;28;20057;-68
2021/08/31 00:07:17;;;;;;;9.63;8.75;;;16.30;99.90;;;;;;2082706;28;20022;-68
2021/08/31 00:08:20;;;;;;;10.15;9.25;;;16.30;99.90;;;;;;2082391;28;20051;-68
2021/08/31 00:09:21;;;;;;;10.27;9.18;;;16.30;99.90;;;;;;2078871;28;20025;-68
2021/08/31 00:10:21;;;;;;;10.07;9.07;;;16.30;99.90;;;;;;2084607;28;20036;-68
2021/08/31 00:11:22;;;;;;;9.18;8.48;;;16.30;99.90;;;;;;2087655;28;20154;-68
2021/08/31 00:12:23;;;;;;;9.85;8.93;;;16.30;99.90;;;;;;2082543;28;20965;-68
2021/08/31 00:13:23;;;;;;;10.48;9.10;;;16.30;99.90;;;;;;2078714;28;20648;-68
2021/08/31 00:14:24;;;;;;;9.95;9.00;;;16.30;99.90;;;;;;2079042;28;20037;-68
2021/08/31 00:15:24;;;;;;;9.52;8.63;;;16.30;99.90;;;;;;2080197;28;20021;-68
2021/08/31 00:16:25;;;;;;;9.98;9.07;;;16.30;99.90;;;;;;2080104;28;20017;-68
2021/08/31 00:17:25;;;;;;;9.70;8.80;;;16.20;99.90;;;;;;2086519;28;20075;-68
2021/08/31 00:18:26;;;;;;;13.07;9.25;;;16.20;99.90;;;;;;2090325;28;20086;-68
2021/08/31 00:19:26;;;;;;;9.48;8.57;;;16.20;99.90;;;;;;2080021;28;20362;-68
2021/08/31 00:20:28;;;;;;;9.57;8.65;;;16.20;99.90;;;;;;2080045;28;20045;-68
2021/08/31 00:21:29;;;;;;;9.70;8.77;;;16.20;99.90;;;;;;2085956;28;20049;-68
2021/08/31 00:22:29;;;;;;;12.40;8.50;;;16.20;99.90;;;;;;2080332;28;20044;-68
2021/08/31 00:23:30;;;;;;;9.10;7.88;;;16.10;99.90;;;;;;2079879;28;20049;-68
2021/08/31 00:24:30;;;;;;;9.50;8.60;;;16.10;99.90;;;;;;2079893;28;20049;-68
2021/08/31 00:25:31;;;;;;;11.15;9.50;;;16.10;99.90;;;;;;2079847;28;20033;-68
2021/08/31 00:26:32;;;;;;;10.88;9.77;;;16.10;99.90;;;;;;2080015;28;20044;-68
2021/08/31 00:27:33;;;;;;;10.07;9.07;;;16.10;99.90;;;;;;2087294;28;20112;-68
2021/08/31 00:28:33;;;;;;;10.10;8.82;;;16.10;99.90;;;;;;2084075;28;20555;-68
2021/08/31 00:29:34;;;;;;;8.88;8.05;;;16.10;99.90;;;;;;2079844;28;20034;-68
2021/08/31 00:30:35;;;;;;;9.98;8.98;;;16.10;99.90;;;;;;2079819;28;20087;-68
2021/08/31 00:31:35;;;;;;;9.80;8.90;;;16.10;99.90;;;;;;2079783;28;20022;-68
2021/08/31 00:32:36;;;;;;;9.60;8.60;;;16.10;99.90;;;;;;2079402;28;20509;-68
2021/08/31 00:33:37;;;;;;;10.20;9.20;;;16.00;99.90;;;;;;2080118;28;20021;-68
2021/08/31 00:34:37;;;;;;;9.88;8.98;;;16.00;99.90;;;;;;2079778;28;20048;-68
2021/08/31 00:35:38;;;;;;;11.02;9.73;;;16.00;99.90;;;;;;2080046;28;20366;-68
2021/08/31 00:36:38;;;;;;;11.25;9.57;;;16.00;99.90;;;;;;2087896;28;20107;-68
2021/08/31 00:37:39;;;;;;;10.48;9.38;;;16.00;99.90;;;;;;2080232;28;20030;-68
2021/08/31 00:38:40;;;;;;;10.73;9.63;;;16.00;99.90;;;;;;2079677;28;20452;-68
2021/08/31 00:39:40;;;;;;;9.23;8.30;;;16.00;99.90;;;;;;2079879;28;20041;-68
2021/08/31 00:40:41;;;;;;;9.10;8.30;;;16.00;99.90;;;;;;2080121;28;20021;-68
2021/08/31 00:41:41;;;;;;;10.65;9.65;;;15.90;99.90;;;;;;2079589;28;20032;-68
2021/08/31 00:42:42;;;;;;;10.18;9.23;;;15.90;99.90;;;;;;2079639;28;20083;-68
2021/08/31 00:43:47;;;;;;;10.50;9.50;;;15.90;99.90;;;;;;2079919;28;20039;-68
2021/08/31 00:44:48;;;;;;;9.85;8.95;;;15.90;99.90;;;;;;2080087;28;20028;-68
2021/08/31 00:45:49;;;;;;;10.20;9.20;;;15.90;99.90;;;;;;2079644;28;20018;-68
2021/08/31 00:46:54;;;;;;;9.98;9.18;;;15.90;99.90;;;;;;2087518;28;20020;-68
2021/08/31 00:47:56;;;;;;;10.98;9.80;;;15.90;99.90;;;;;;2083486;28;20025;-68
2021/08/31 00:48:56;;;;;;;11.10;9.88;;;15.90;99.90;;;;;;2079864;28;20473;-68
2021/08/31 00:49:57;;;;;;;9.73;8.93;;;15.80;99.90;;;;;;2079794;28;20389;-68
2021/08/31 00:50:57;;;;;;;11.20;9.80;;;15.80;99.90;;;;;;2079755;28;20026;-68
2021/08/31 00:51:59;;;;;;;10.15;9.18;;;15.80;99.90;;;;;;2079752;28;20048;-68
2021/08/31 00:52:59;;;;;;;9.85;8.95;;;15.80;99.90;;;;;;2079799;28;20030;-68
2021/08/31 00:54:00;;;;;;;10.30;9.38;;;15.80;99.90;;;;;;2079481;28;20069;-68
2021/08/31 00:55:01;;;;;;;10.80;9.73;;;15.80;99.90;;;;;;2079825;28;20083;-68
2021/08/31 00:56:03;;;;;;;10.73;9.73;;;15.80;99.90;;;;;;2080725;28;20429;-68
2021/08/31 00:57:05;;;;;;;10.15;9.13;;;15.80;99.90;;;;;;2083173;28;20021;-68
2021/08/31 00:58:05;;;;;;;10.65;9.70;;;15.80;99.90;;;;;;2079831;28;20017;-68
2021/08/31 00:59:06;;;;;;;10.98;9.80;;;15.80;99.90;;;;;;2079930;28;20112;-68
2021/08/31 01:00:10;;;;;;;11.02;9.88;;;15.80;99.90;;;;;;2079647;28;20021;-68
2021/08/31 01:01:10;;;;;;;10.40;9.40;;;15.70;99.90;;;;;;2080495;28;20416;-69
2021/08/31 01:02:11;;;;;;;11.00;9.98;;;15.70;99.90;;;;;;2079517;28;20416;-68
2021/08/31 01:03:12;;;;;;;9.60;8.70;;;15.80;99.90;;;;;;2079564;28;20061;-68
2021/08/31 01:04:12;;;;;;;10.88;8.88;;;15.80;99.90;;;;;;2079656;28;20026;-68
2021/08/31 01:05:13;;;;;;;9.40;8.50;;;15.80;99.90;;;;;;2079713;28;20075;-68
2021/08/31 01:06:13;;;;;;;10.70;9.70;;;15.80;99.90;;;;;;2079463;28;20082;-68
2021/08/31 01:07:14;;;;;;;11.57;9.60;;;15.70;99.90;;;;;;2084412;28;20104;-68
2021/08/31 01:08:14;;;;;;;10.60;9.48;;;15.80;99.90;;;;;;2079974;28;20100;-68
2021/08/31 01:09:15;;;;;;;9.13;8.32;;;15.70;99.90;;;;;;2079856;28;20030;-68
2021/08/31 01:10:16;;;;;;;10.20;9.25;;;15.70;99.90;;;;;;2080360;28;20485;-68
2021/08/31 01:11:17;;;;;;;11.35;10.15;;;15.80;99.90;;;;;;2079605;28;20021;-68
2021/08/31 01:12:18;;;;;;;10.52;9.45;;;15.70;99.90;;;;;;2079392;28;20021;-69
2021/08/31 01:13:22;;;;;;;10.35;9.27;;;15.70;99.90;;;;;;2078292;28;20021;-68
2021/08/31 01:14:25;;;;;;;12.00;9.88;;;15.80;99.90;;;;;;2085130;28;20025;-68
2021/08/31 01:15:26;;;;;;;12.88;10.05;;;15.80;99.90;;;;;;2084540;28;20438;-68
2021/08/31 01:16:26;;;;;;;10.00;9.00;;;15.70;99.90;;;;;;2084830;28;20021;-69
2021/08/31 01:17:28;;;;;;;10.55;9.55;;;15.80;99.90;;;;;;2093533;28;20031;-68
2021/08/31 01:18:29;;;;;;;11.32;10.23;;;15.80;99.90;;;;;;2092353;28;20089;-68
2021/08/31 01:19:30;;;;;;;9.82;8.93;;;15.80;99.90;;;;;;2079863;28;20021;-68
2021/08/31 01:20:32;;;;;;;12.23;9.88;;;15.80;99.90;;;;;;2079533;28;20026;-68
2021/08/31 01:21:33;;;;;;;9.98;9.07;;;15.80;99.90;;;;;;2085845;28;20060;-68
2021/08/31 01:22:34;;;;;;;10.65;9.48;;;15.80;99.90;;;;;;2078978;28;20143;-68
2021/08/31 01:23:35;;;;;;;10.10;9.18;;;15.80;99.90;;;;;;2079885;28;20048;-69
2021/08/31 01:24:42;;;;;;;10.73;9.70;;;15.80;99.90;;;;;;2078670;28;20183;-68
2021/08/31 01:25:43;;;;;;;10.88;9.85;;;15.80;99.90;;;;;;2079424;28;20025;-68
2021/08/31 01:26:45;;;;;;;11.45;10.35;;;15.80;99.90;;;;;;2082226;28;20536;-68
2021/08/31 01:27:45;;;;;;;10.38;9.38;;;15.80;99.90;;;;;;2096172;28;20037;-68
2021/08/31 01:28:46;;;;;;;11.32;10.32;;;15.80;99.90;;;;;;2082854;28;20038;-68
2021/08/31 01:29:49;;;;;;;11.88;10.32;;;15.90;99.90;;;;;;2079802;28;20400;-68
2021/08/31 01:30:51;;;;;;;16.17;11.32;;;15.80;99.90;;;;;;2079775;28;20083;-68
2021/08/31 01:31:52;;;;;;;11.60;10.45;;;15.90;99.90;;;;;;2079424;28;20489;-68
2021/08/31 01:32:52;;;;;;;12.15;10.98;;;15.90;99.90;;;;;;2079045;28;20472;-68
2021/08/31 01:33:54;;;;;;;11.60;10.40;;;15.90;99.90;;;;;;2079466;28;20029;-68
2021/08/31 01:34:55;;;;;;;12.05;10.85;;;15.90;99.90;;;;;;2080368;28;20083;-68
2021/08/31 01:35:56;;;;;;;12.85;11.55;;;15.90;99.90;;;;;;2079855;28;20086;-68
2021/08/31 01:36:57;;;;;;;11.40;10.30;;;15.90;99.90;;;;;;2086487;28;20021;-68
2021/08/31 01:37:57;;;;;;;10.70;9.70;;;15.90;99.90;;;;;;2088139;28;20021;-68
2021/08/31 01:38:58;;;;;;;13.40;9.82;;;15.90;99.90;;;;;;2089315;28;20021;-68
2021/08/31 01:39:58;;;;;;;11.82;10.73;;;16.00;99.90;;;;;;2085288;28;20033;-68
2021/08/31 01:40:59;;;;;;;12.05;10.93;;;16.00;99.90;;;;;;2079526;28;20037;-68
2021/08/31 01:41:59;;;;;;;12.98;11.55;;;16.00;99.90;;;;;;2079427;28;20036;-68
2021/08/31 01:43:00;;;;;;;10.48;9.48;;;16.00;99.90;;;;;;2079074;28;20378;-68
2021/08/31 01:44:01;;;;;;;11.57;10.55;;;16.00;99.90;;;;;;2079560;28;20022;-69
2021/08/31 01:45:01;;;;;;;13.88;11.13;;;16.00;99.90;;;;;;2079609;28;20545;-69
2021/08/31 01:46:02;;;;;;;10.55;9.55;;;16.00;99.90;;;;;;2079634;28;20030;-68
2021/08/31 01:47:03;;;;;;;12.23;11.15;;;16.00;99.90;;;;;;2084974;28;20361;-68
2021/08/31 01:48:04;;;;;;;12.70;11.50;;;16.00;99.90;;;;;;2082448;28;20378;-69
2021/08/31 01:49:04;;;;;;;12.82;11.45;;;16.10;99.90;;;;;;2079429;28;20030;-68
2021/08/31 01:50:06;;;;;;;13.18;11.95;;;16.00;99.90;;;;;;2079617;28;20481;-69
2021/08/31 01:51:06;;;;;;;13.23;12.07;;;16.10;99.90;;;;;;2079499;28;20024;-69
2021/08/31 01:52:07;;;;;;;12.38;11.18;;;16.10;99.90;;;;;;2080429;28;20037;-69
2021/08/31 01:53:08;;;;;;;12.45;11.35;;;16.10;99.90;;;;;;2090683;28;20028;-68
2021/08/31 01:54:08;;;;;;;14.10;12.57;;;16.10;99.90;;;;;;2091920;28;20100;-68
2021/08/31 01:55:09;;;;;;;11.98;10.88;;;16.10;99.90;;;;;;2079321;28;20075;-68
2021/08/31 01:56:10;;;;;;;13.45;12.18;;;16.10;99.90;;;;;;2081744;28;20477;-68
2021/08/31 01:57:11;;;;;;;17.88;11.77;;;16.10;99.90;;;;;;2086919;28;20532;-68
2021/08/31 01:58:11;;;;;;;12.07;10.88;;;16.10;99.90;;;;;;2079714;28;20013;-68
2021/08/31 01:59:12;;;;;;;11.95;10.75;;;16.10;99.90;;;;;;2079535;28;20020;-68
2021/08/31 02:00:12;;;;;;;12.32;11.13;;;16.10;99.90;;;;;;2079534;28;21026;-68
2021/08/31 02:01:13;;;;;;;12.00;10.50;;;16.10;99.90;;;;;;2084199;28;20079;-68
2021/08/31 02:02:14;;;;;;;12.15;11.05;;;16.20;99.90;;;;;;2086839;28;20055;-68
2021/08/31 02:03:14;;;;;;;13.10;11.85;;;16.20;99.90;;;;;;2080611;28;20029;-68
2021/08/31 02:04:15;;;;;;;11.98;10.75;;;16.20;99.90;;;;;;2080612;28;20104;-69
2021/08/31 02:05:15;;;;;;;11.70;10.57;;;16.20;99.90;;;;;;2080158;28;20024;-68
2021/08/31 02:06:16;;;;;;;11.07;10.02;;;16.20;99.90;;;;;;2080131;28;20029;-69
2021/08/31 02:07:16;;;;;;;11.60;10.50;;;16.20;99.90;;;;;;2080819;28;20393;-69
2021/08/31 02:08:17;;;;;;;10.90;9.93;;;16.20;99.90;;;;;;2080596;28;20027;-69
2021/08/31 02:09:17;;;;;;;12.15;10.98;;;16.20;99.90;;;;;;2088359;28;20029;-69
2021/08/31 02:10:18;;;;;;;16.77;12.25;;;16.20;99.90;;;;;;2087242;28;20464;-68
2021/08/31 02:11:19;;;;;;;12.90;11.60;;;16.20;99.90;;;;;;2081002;28;20053;-68
2021/08/31 02:12:19;;;;;;;13.73;12.48;;;16.20;99.90;;;;;;2080629;28;20025;-69
2021/08/31 02:13:20;;;;;;;11.43;10.32;;;16.20;99.90;;;;;;2080680;28;20017;-69
2021/08/31 02:14:20;;;;;;;11.75;10.55;;;16.20;99.90;;;;;;2080674;28;20026;-69
2021/08/31 02:15:21;;;;;;;13.45;12.15;;;16.20;99.90;;;;;;2081632;28;20022;-69
2021/08/31 02:16:21;;;;;;;12.82;11.63;;;16.20;99.90;;;;;;2089074;28;20025;-69
2021/08/31 02:17:22;;;;;;;11.85;10.75;;;16.20;99.90;;;;;;2086457;28;20361;-68
2021/08/31 02:18:22;;;;;;;12.55;11.38;;;16.20;99.90;;;;;;2087541;28;20021;-69
2021/08/31 02:19:23;;;;;;;9.98;9.07;;;16.20;99.90;;;;;;2080947;28;20025;-69
2021/08/31 02:20:23;;;;;;;13.65;12.20;;;16.20;99.90;;;;;;2080589;28;20462;-69
2021/08/31 02:21:24;;;;;;;14.57;13.10;;;16.20;99.90;;;;;;2086367;28;20025;-69
2021/08/31 02:22:24;;;;;;;13.02;11.80;;;16.20;99.90;;;;;;2081007;28;20017;-68
2021/08/31 02:23:25;;;;;;;12.63;11.40;;;16.20;99.90;;;;;;2080513;28;20025;-69
2021/08/31 02:24:25;;;;;;;12.82;11.57;;;16.20;99.90;;;;;;2080894;28;20037;-69
2021/08/31 02:25:26;;;;;;;14.57;13.20;;;16.20;99.90;;;;;;2084892;28;20433;-69
2021/08/31 02:26:30;;;;;;;12.32;11.07;;;16.20;99.90;;;;;;2080403;28;20156;-69
2021/08/31 02:27:31;;;;;;;13.05;11.82;;;16.20;99.90;;;;;;2081502;28;20473;-69
2021/08/31 02:28:31;;;;;;;14.85;13.25;;;16.20;99.90;;;;;;2084775;28;20064;-69
2021/08/31 02:29:32;;;;;;;13.80;12.38;;;16.10;99.90;;;;;;2084273;28;20041;-69
2021/08/31 02:30:33;;;;;;;12.18;10.98;;;16.10;99.90;;;;;;2082031;28;20022;-69
2021/08/31 02:31:33;;;;;;;15.25;13.73;;;16.10;99.90;;;;;;2082165;28;20033;-68
2021/08/31 02:32:34;;;;;;;12.25;11.20;;;16.10;99.90;;;;;;2082004;28;20026;-68
2021/08/31 02:33:35;;;;;;;14.02;12.50;;;16.10;99.90;;;;;;2082338;28;20044;-69
2021/08/31 02:34:35;;;;;;;13.50;12.27;;;16.10;99.90;;;;;;2082290;28;20029;-69
2021/08/31 02:35:36;;;;;;;12.82;11.52;;;16.10;99.90;;;;;;2082394;28;20095;-69
2021/08/31 02:36:36;;;;;;;13.10;11.88;;;16.10;99.90;;;;;;2086508;28;20032;-69
2021/08/31 02:37:37;;;;;;;14.15;12.57;;;16.10;99.90;;;;;;2090361;28;20469;-69
2021/08/31 02:38:37;;;;;;;11.13;10.02;;;16.10;99.90;;;;;;2090672;28;20031;-69
2021/08/31 02:39:38;;;;;;;12.05;10.80;;;16.10;99.90;;;;;;2090433;28;20427;-69
2021/08/31 02:40:39;;;;;;;14.40;13.00;;;16.10;99.90;;;;;;2091048;28;20091;-69
2021/08/31 02:41:39;;;;;;;11.50;10.45;;;16.10;99.90;;;;;;2086213;28;20040;-69
2021/08/31 02:42:40;;;;;;;12.32;11.15;;;16.10;99.90;;;;;;2081703;28;20064;-69
2021/08/31 02:43:40;;;;;;;11.27;10.27;;;16.10;99.90;;;;;;2084866;28;20373;-69
2021/08/31 02:44:41;;;;;;;13.25;12.05;;;16.10;99.90;;;;;;2088187;28;20061;-69
2021/08/31 02:45:41;;;;;;;11.82;10.63;;;16.10;99.90;;;;;;2090314;28;20028;-69
2021/08/31 02:46:42;;;;;;;15.05;10.52;;;16.10;99.90;;;;;;2083562;28;20022;-69
2021/08/31 02:47:43;;;;;;;13.65;11.30;;;16.10;99.90;;;;;;2082859;28;20029;-69
2021/08/31 02:48:44;;;;;;;12.65;11.45;;;16.10;99.90;;;;;;2089800;28;20032;-69
2021/08/31 02:49:45;;;;;;;13.13;11.82;;;16.10;99.90;;;;;;2084554;28;20033;-69
2021/08/31 02:50:45;;;;;;;11.98;10.77;;;16.10;99.90;;;;;;2082432;28;20029;-68
2021/08/31 02:51:46;;;;;;;11.27;10.07;;;16.10;99.90;;;;;;2081158;28;20108;-69
2021/08/31 02:52:48;;;;;;;13.43;12.02;;;16.10;99.90;;;;;;2085166;28;20526;-69
2021/08/31 02:53:49;;;;;;;11.70;10.63;;;16.10;99.90;;;;;;2082022;28;20052;-69
2021/08/31 02:54:49;;;;;;;11.70;10.52;;;16.00;99.90;;;;;;2082127;28;20032;-69
2021/08/31 02:55:50;;;;;;;13.05;11.77;;;16.00;99.90;;;;;;2082078;28;20373;-69
2021/08/31 02:56:50;;;;;;;13.30;11.98;;;16.00;99.90;;;;;;2091114;28;20089;-69
2021/08/31 02:57:51;;;;;;;12.63;11.35;;;16.00;99.90;;;;;;2085408;28;20049;-69
2021/08/31 02:58:52;;;;;;;12.75;11.63;;;16.00;99.90;;;;;;2082638;28;20033;-69
2021/08/31 02:59:52;;;;;;;13.50;12.25;;;16.00;99.90;;;;;;2081859;28;20109;-69
2021/08/31 03:01:03;;;;;;;14.75;12.20;;;16.00;99.90;;;;;;2082871;28;20025;-69
2021/08/31 03:02:04;;;;;;;12.77;11.35;;;16.00;99.90;;;;;;2081110;28;20477;-69
2021/08/31 03:03:05;;;;;;;14.30;12.68;;;16.00;99.90;;;;;;2080892;28;20373;-69
2021/08/31 03:04:05;;;;;;;15.32;11.68;;;16.00;99.90;;;;;;2083691;28;20033;-69
2021/08/31 03:05:06;;;;;;;11.50;10.23;;;16.00;99.90;;;;;;2089618;28;20060;-69
2021/08/31 03:06:07;;;;;;;12.27;11.07;;;16.00;99.90;;;;;;2083474;28;20452;-69
2021/08/31 03:07:10;;;;;;;12.88;11.48;;;15.90;99.90;;;;;;2080887;28;20030;-69
2021/08/31 03:08:11;;;;;;;12.98;11.77;;;15.90;99.90;;;;;;2080257;28;20401;-69
2021/08/31 03:09:11;;;;;;;12.00;10.85;;;15.90;99.90;;;;;;2080531;28;20094;-69
2021/08/31 03:10:12;;;;;;;13.65;12.25;;;15.90;99.90;;;;;;2082015;28;20566;-69
2021/08/31 03:11:12;;;;;;;13.30;11.98;;;15.90;99.90;;;;;;2080737;28;20026;-69
2021/08/31 03:12:13;;;;;;;12.45;11.30;;;15.90;99.90;;;;;;2080448;28;20513;-69
2021/08/31 03:13:13;;;;;;;13.10;11.93;;;15.90;99.90;;;;;;2085145;28;20020;-69
2021/08/31 03:14:19;;;;;;;12.10;10.95;;;15.90;99.90;;;;;;2088796;28;20021;-69
2021/08/31 03:15:19;;;;;;;13.77;12.48;;;15.90;99.90;;;;;;2087427;28;20017;-69
2021/08/31 03:16:20;;;;;;;12.55;11.35;;;15.90;99.90;;;;;;2086151;28;20096;-69
2021/08/31 03:17:20;;;;;;;14.05;12.68;;;15.90;99.90;;;;;;2084274;28;20608;-69
2021/08/31 03:18:21;;;;;;;14.10;12.15;;;15.90;99.90;;;;;;2087742;28;20052;-69
2021/08/31 03:19:24;;;;;;;12.80;11.63;;;15.90;99.90;;;;;;2081070;28;20076;-69
2021/08/31 03:20:26;;;;;;;13.35;12.07;;;15.90;99.90;;;;;;2085039;28;20025;-69
2021/08/31 03:21:27;;;;;;;13.10;11.85;;;15.90;99.90;;;;;;2088747;28;20025;-69
2021/08/31 03:22:27;;;;;;;15.65;12.40;;;15.90;99.90;;;;;;2085632;28;20033;-69
2021/08/31 03:23:28;;;;;;;13.80;12.48;;;15.90;99.90;;;;;;2086590;28;20404;-69
2021/08/31 03:24:29;;;;;;;15.15;13.52;;;15.90;99.90;;;;;;2087439;28;20036;-69
2021/08/31 03:25:30;;;;;;;14.65;12.90;;;15.90;99.90;;;;;;2083115;28;20358;-69
2021/08/31 03:26:31;;;;;;;14.85;13.48;;;15.90;99.90;;;;;;2080622;28;20140;-69
2021/08/31 03:27:31;;;;;;;14.65;13.18;;;15.90;99.90;;;;;;2082983;28;20029;-69
2021/08/31 03:28:32;;;;;;;13.82;12.45;;;15.90;99.90;;;;;;2081433;28;20436;-69
2021/08/31 03:29:33;;;;;;;14.48;12.98;;;15.90;99.90;;;;;;2080700;28;20025;-69
2021/08/31 03:30:33;;;;;;;12.98;11.77;;;15.90;99.90;;;;;;2080616;28;20033;-69
2021/08/31 03:31:34;;;;;;;13.95;12.57;;;15.90;99.90;;;;;;2080236;28;20035;-69
2021/08/31 03:32:38;;;;;;;13.45;12.05;;;15.90;99.90;;;;;;2080610;28;20018;-69
2021/08/31 03:33:38;;;;;;;12.82;11.63;;;15.90;99.90;;;;;;2079634;28;20025;-69
2021/08/31 03:34:39;;;;;;;12.50;11.40;;;15.90;99.90;;;;;;2090814;28;20052;-69
2021/08/31 03:35:40;;;;;;;12.13;10.90;;;15.90;99.90;;;;;;2080784;28;20076;-69
2021/08/31 03:36:41;;;;;;;12.40;11.13;;;15.90;99.90;;;;;;2085679;28;20022;-69
2021/08/31 03:37:42;;;;;;;15.48;13.88;;;15.90;99.90;;;;;;2088711;28;20070;-69
2021/08/31 03:38:42;;;;;;;16.30;14.43;;;15.90;99.90;;;;;;2088958;28;20033;-69
2021/08/31 03:39:43;;;;;;;13.95;12.60;;;15.90;99.90;;;;;;2087933;28;20037;-69
2021/08/31 03:40:43;;;;;;;13.55;12.25;;;15.90;99.90;;;;;;2088889;28;20543;-69
2021/08/31 03:41:44;;;;;;;14.70;12.75;;;15.90;99.90;;;;;;2088387;28;20037;-69
2021/08/31 03:42:46;;;;;;;14.13;12.25;;;15.90;99.90;;;;;;2088171;28;20025;-69
2021/08/31 03:43:47;;;;;;;15.18;13.65;;;15.90;99.90;;;;;;2080727;28;20433;-69
2021/08/31 03:44:47;;;;;;;13.43;12.23;;;15.90;99.90;;;;;;2080568;28;20053;-69
2021/08/31 03:45:48;;;;;;;14.68;13.38;;;15.90;99.90;;;;;;2080366;28;20038;-69
2021/08/31 03:46:48;;;;;;;15.23;13.63;;;15.90;99.90;;;;;;2080464;28;20033;-69
2021/08/31 03:47:49;;;;;;;15.43;13.82;;;15.90;99.90;;;;;;2080929;28;20025;-69
2021/08/31 03:48:50;;;;;;;15.35;13.45;;;15.90;99.90;;;;;;2080844;28;20029;-69
2021/08/31 03:49:50;;;;;;;14.90;13.48;;;15.90;99.90;;;;;;2080432;28;20041;-69
2021/08/31 03:50:51;;;;;;;14.68;13.25;;;15.90;99.90;;;;;;2089282;28;20032;-69
2021/08/31 03:51:51;;;;;;;14.18;12.85;;;15.90;99.90;;;;;;2081874;28;20358;-69
2021/08/31 03:52:52;;;;;;;14.77;13.27;;;15.90;99.90;;;;;;2079360;28;20070;-69
2021/08/31 03:53:53;;;;;;;13.00;11.85;;;15.90;99.90;;;;;;2079822;28;20393;-69
2021/08/31 03:54:53;;;;;;;14.25;12.85;;;15.90;99.90;;;;;;2088786;28;20057;-69
2021/08/31 03:55:54;;;;;;;15.02;13.48;;;15.90;99.90;;;;;;2088503;28;20028;-69
2021/08/31 03:56:54;;;;;;;14.02;12.70;;;16.00;99.90;;;;;;2088087;28;20053;-69
2021/08/31 03:57:55;;;;;;;15.02;13.50;;;15.90;99.90;;;;;;2082525;28;20347;-69
2021/08/31 03:58:55;;;;;;;17.23;14.40;;;16.00;99.90;;;;;;2083261;28;20044;-69
2021/08/31 03:59:56;;;;;;;16.98;15.23;;;16.00;99.90;;;;;;2080505;28;20052;-69
2021/08/31 04:00:57;;;;;;;15.20;13.70;;;16.00;99.90;;;;;;2080234;28;20033;-69
2021/08/31 04:01:57;;;;;;;13.68;12.20;;;16.00;99.90;;;;;;2085026;28;20528;-69
2021/08/31 04:02:58;;;;;;;13.88;12.45;;;16.00;99.90;;;;;;2085896;28;20470;-69
2021/08/31 04:03:58;;;;;;;13.23;11.82;;;16.00;99.90;;;;;;2096777;28;20052;-69
2021/08/31 04:04:59;;;;;;;14.95;13.65;;;16.00;99.90;;;;;;2097203;28;20070;-69
2021/08/31 04:05:59;;;;;;;15.93;14.45;;;16.00;99.90;;;;;;2085504;28;20030;-69
2021/08/31 04:07:00;;;;;;;15.52;13.20;;;16.00;99.90;;;;;;2086540;28;20357;-69
2021/08/31 04:08:00;;;;;;;16.38;13.73;;;16.00;99.90;;;;;;2080350;28;20028;-69
2021/08/31 04:09:01;;;;;;;16.35;14.63;;;16.00;99.90;;;;;;2080301;28;20452;-69
2021/08/31 04:10:02;;;;;;;16.30;14.70;;;16.00;99.90;;;;;;2080416;28;20028;-69
2021/08/31 04:11:02;;;;;;;15.60;14.07;;;16.00;99.90;;;;;;2081183;28;20021;-69
2021/08/31 04:12:03;;;;;;;15.50;13.95;;;16.00;99.90;;;;;;2081358;28;20083;-69
2021/08/31 04:13:07;;;;;;;16.00;14.40;;;16.00;99.90;;;;;;2080102;28;20497;-69
2021/08/31 04:14:08;;;;;;;13.93;12.63;;;16.00;99.90;;;;;;2081170;28;20032;-69
2021/08/31 04:15:09;;;;;;;13.82;12.35;;;16.00;99.90;;;;;;2082780;28;20108;-69
2021/08/31 04:16:10;;;;;;;14.27;11.85;;;16.00;99.90;;;;;;2079331;28;20521;-69
2021/08/31 04:17:10;;;;;;;13.32;11.68;;;16.00;99.90;;;;;;2080574;28;20438;-69
2021/08/31 04:18:11;;;;;;;11.57;10.38;;;16.00;99.90;;;;;;2080773;28;20075;-69
2021/08/31 04:19:11;;;;;;;13.77;11.85;;;16.00;99.90;;;;;;2079864;28;20021;-69
2021/08/31 04:20:13;;;;;;;13.27;11.85;;;16.00;99.90;;;;;;2080385;28;20103;-69
2021/08/31 04:21:13;;;;;;;12.63;11.43;;;16.00;99.90;;;;;;2080134;28;20492;-69
2021/08/31 04:22:14;;;;;;;14.20;12.80;;;16.00;99.90;;;;;;2080078;28;20446;-69
2021/08/31 04:23:14;;;;;;;12.18;10.98;;;16.00;99.90;;;;;;2086627;28;20108;-69
2021/08/31 04:24:15;;;;;;;12.65;11.35;;;16.00;99.90;;;;;;2080526;28;20021;-69
2021/08/31 04:25:16;;;;;;;13.05;11.85;;;16.00;99.90;;;;;;2080100;28;20483;-69
2021/08/31 04:26:16;;;;;;;12.65;11.10;;;16.00;99.90;;;;;;2079994;28;20029;-69
2021/08/31 04:27:17;;;;;;;12.15;11.02;;;16.00;99.90;;;;;;2079432;28;20111;-69
2021/08/31 04:28:18;;;;;;;13.35;12.05;;;16.00;99.90;;;;;;2078984;28;20545;-69
2021/08/31 04:29:18;;;;;;;13.27;11.98;;;16.00;99.90;;;;;;2088264;28;20060;-69
2021/08/31 04:30:19;;;;;;;13.68;12.38;;;16.00;99.90;;;;;;2083011;28;20034;-69
2021/08/31 04:31:22;;;;;;;12.48;11.27;;;15.90;99.90;;;;;;2080035;28;20752;-69
2021/08/31 04:32:22;;;;;;;13.95;12.55;;;15.90;99.90;;;;;;2080310;28;20473;-69
2021/08/31 04:33:23;;;;;;;15.05;12.90;;;15.90;99.90;;;;;;2079062;28;20100;-69
2021/08/31 04:34:23;;;;;;;15.10;13.60;;;15.90;99.90;;;;;;2079578;28;20025;-69
2021/08/31 04:35:24;;;;;;;13.93;12.52;;;15.90;99.90;;;;;;2080285;28;20049;-69
2021/08/31 04:36:25;;;;;;;15.30;12.45;;;15.90;99.90;;;;;;2082673;28;20495;-69
2021/08/31 04:37:25;;;;;;;13.27;11.80;;;15.80;99.90;;;;;;2088437;28;20124;-69
2021/08/31 04:38:26;;;;;;;12.95;11.75;;;15.80;99.90;;;;;;2087742;28;20117;-69
2021/08/31 04:39:26;;;;;;;16.40;13.07;;;15.80;99.90;;;;;;2088855;28;20028;-69
2021/08/31 04:40:27;;;;;;;14.52;12.65;;;15.80;99.90;;;;;;2080081;28;20112;-69
2021/08/31 04:41:28;;;;;;;14.50;13.00;;;15.80;99.90;;;;;;2079721;28;20472;-69
2021/08/31 04:42:28;;;;;;;16.05;14.32;;;15.80;99.90;;;;;;2079896;28;20052;-69
2021/08/31 04:43:29;;;;;;;13.07;11.77;;;15.80;99.90;;;;;;2082683;28;20113;-69
2021/08/31 04:44:30;;;;;;;14.48;13.02;;;15.70;99.90;;;;;;2085726;28;20044;-69
2021/08/31 04:45:30;;;;;;;18.17;14.25;;;15.70;99.90;;;;;;2079967;28;20105;-69
2021/08/31 04:46:31;;;;;;;14.90;13.48;;;15.80;99.90;;;;;;2079944;28;20033;-69
2021/08/31 04:47:31;;;;;;;14.25;12.93;;;15.80;99.90;;;;;;2081948;28;20031;-69
2021/08/31 04:48:32;;;;;;;16.73;15.10;;;15.70;99.90;;;;;;2079988;28;20087;-69
2021/08/31 04:49:32;;;;;;;14.75;13.25;;;15.70;99.90;;;;;;2080048;28;20099;-69
2021/08/31 04:50:33;;;;;;;15.43;13.98;;;15.70;99.90;;;;;;2079783;28;20428;-69
2021/08/31 04:51:33;;;;;;;18.65;16.88;;;15.70;99.90;;;;;;2078595;28;20021;-69
2021/08/31 04:52:34;;;;;;;17.17;15.52;;;15.70;99.90;;;;;;2084667;28;20105;-69
2021/08/31 04:53:35;;;;;;;15.90;14.35;;;15.70;99.90;;;;;;2079128;28;20032;-69
2021/08/31 04:54:36;;;;;;;19.60;17.60;;;15.70;99.90;;;;;;2079362;28;20083;-69
2021/08/31 04:55:37;;;;;;;17.48;15.23;;;15.70;99.90;;;;;;2088946;28;20024;-69
2021/08/31 04:56:37;;;;;;;16.00;14.30;;;15.70;99.90;;;;;;2085015;28;20036;-69
2021/08/31 04:57:38;;;;;;;16.48;14.82;;;15.70;99.90;;;;;;2083680;28;20014;-69
2021/08/31 04:58:38;;;;;;;14.90;13.55;;;15.70;99.90;;;;;;2079979;28;20040;-69
2021/08/31 04:59:39;;;;;;;18.00;15.07;;;15.70;99.90;;;;;;2079866;28;20075;-69
2021/08/31 05:00:39;;;;;;;14.98;12.98;;;15.70;99.90;;;;;;2080045;28;20038;-69
2021/08/31 05:01:40;;;;;;;19.55;14.55;;;15.70;99.90;;;;;;2080066;28;21147;-69
2021/08/31 05:02:41;;;;;;;19.95;15.52;;;15.70;99.90;;;;;;2079335;28;20112;-69
2021/08/31 05:03:42;;;;;;;20.77;18.02;;;15.70;99.90;;;;;;2082467;28;20040;-69
2021/08/31 05:04:43;;;;;;;20.73;18.35;;;15.70;99.90;;;;;;2080012;28;20483;-69
2021/08/31 05:05:44;;;;;;;21.30;18.13;;;15.70;99.90;;;;;;2079965;28;20384;-69
2021/08/31 05:06:44;;;;;;;18.40;16.63;;;15.70;99.90;;;;;;2079485;28;20075;-69
2021/08/31 05:07:45;;;;;;;25.05;22.38;;;15.70;99.90;;;;;;2079996;28;20038;-69
2021/08/31 05:08:46;;;;;;;27.27;22.52;;;15.80;99.90;;;;;;2079901;28;20036;-69
2021/08/31 05:09:46;;;;;;;26.02;23.40;;;15.80;99.90;;;;;;2079078;28;20525;-69